createdAt,value
2018-09-22T00:01:17.364Z,10.40
2018-09-22T00:03:52.230Z,10.40
2018-09-22T00:06:27.039Z,10.40
2018-09-22T00:09:01.900Z,10.40
2018-09-22T00:11:36.656Z,10.30
2018-09-22T00:14:11.454Z,10.30
2018-09-22T00:16:46.133Z,10.30
2018-09-22T00:19:21.443Z,10.20
2018-09-22T00:21:56.081Z,10.20
2018-09-22T00:24:30.904Z,10.20
2018-09-22T00:27:05.678Z,10.10
2018-09-22T00:29:40.436Z,10.10
2018-09-22T00:32:15.137Z,10.10
2018-09-22T00:34:50.079Z,10.10
2018-09-22T00:37:24.626Z,10.10
2018-09-22T00:39:59.592Z,10.20
2018-09-22T00:42:34.200Z,10.40
2018-09-22T00:45:09.118Z,10.40
2018-09-22T00:47:43.970Z,10.50
2018-09-22T00:50:19.205Z,10.60
2018-09-22T00:52:53.797Z,10.70
2018-09-22T00:55:28.619Z,10.70
2018-09-22T00:58:03.343Z,10.70
2018-09-22T01:00:38.211Z,10.70
2018-09-22T01:03:12.852Z,10.70
2018-09-22T01:05:47.760Z,10.80
2018-09-22T01:08:22.428Z,10.80
2018-09-22T01:10:57.270Z,10.80
2018-09-22T01:13:31.810Z,10.90
2018-09-22T01:16:06.705Z,11.00
2018-09-22T01:18:41.461Z,11.00
2018-09-22T01:21:17.514Z,11.10
2018-09-22T01:23:52.293Z,11.20
2018-09-22T01:26:27.180Z,11.20
2018-09-22T01:29:01.808Z,11.30
2018-09-22T01:31:36.596Z,11.30
2018-09-22T01:34:11.275Z,11.30
2018-09-22T01:36:46.085Z,11.30
2018-09-22T01:39:20.872Z,11.40
2018-09-22T01:41:55.758Z,11.40
2018-09-22T01:44:30.429Z,11.40
2018-09-22T01:47:05.357Z,11.50
2018-09-22T01:49:39.933Z,11.50
2018-09-22T01:52:14.628Z,11.50
2018-09-22T01:54:49.170Z,11.50
2018-09-22T01:57:24.083Z,11.40
2018-09-22T01:59:58.757Z,11.40
2018-09-22T02:02:33.552Z,11.30
2018-09-22T02:05:08.210Z,11.20
2018-09-22T02:07:43.000Z,11.20
2018-09-22T02:10:17.871Z,11.20
2018-09-22T02:12:52.614Z,11.10
2018-09-22T02:15:27.497Z,11.10
2018-09-22T02:18:02.332Z,11.00
2018-09-22T02:20:36.980Z,11.00
2018-09-22T02:23:11.868Z,10.90
2018-09-22T02:25:46.449Z,10.80
2018-09-22T02:28:21.296Z,10.70
2018-09-22T02:30:55.950Z,10.70
2018-09-22T02:33:30.884Z,10.60
2018-09-22T02:36:05.671Z,10.60
2018-09-22T02:38:40.431Z,10.70
2018-09-22T02:41:15.273Z,10.80
2018-09-22T02:43:50.083Z,10.90
2018-09-22T02:46:24.745Z,10.90
2018-09-22T02:48:59.664Z,11.00
2018-09-22T02:51:34.501Z,10.90
2018-09-22T02:54:09.271Z,10.80
2018-09-22T02:56:44.637Z,10.70
2018-09-22T02:59:20.123Z,10.70
2018-09-22T03:01:55.616Z,10.60
2018-09-22T03:04:31.184Z,10.50
2018-09-22T03:07:06.501Z,10.50
2018-09-22T03:09:42.051Z,10.40
2018-09-22T03:12:17.492Z,10.40
2018-09-22T03:14:53.044Z,10.40
2018-09-22T03:17:28.280Z,10.40
2018-09-22T03:20:04.084Z,10.40
2018-09-22T03:22:39.505Z,10.50
2018-09-22T03:25:14.947Z,10.60
2018-09-22T03:27:50.407Z,10.60
2018-09-22T03:30:25.856Z,10.70
2018-09-22T03:33:01.262Z,10.60
2018-09-22T03:35:36.838Z,10.60
2018-09-22T03:38:12.265Z,10.60
2018-09-22T03:40:47.927Z,10.50
2018-09-22T03:43:23.179Z,10.50
2018-09-22T03:45:58.714Z,10.40
2018-09-22T03:48:34.068Z,10.40
2018-09-22T03:51:09.600Z,10.40
2018-09-22T03:53:45.106Z,10.40
2018-09-22T03:56:20.798Z,10.30
2018-09-22T03:58:56.284Z,10.30
2018-09-22T04:01:31.639Z,10.30
2018-09-22T04:04:07.169Z,10.30
2018-09-22T04:06:42.732Z,10.40
2018-09-22T04:09:18.256Z,10.50
2018-09-22T04:11:53.692Z,10.50
2018-09-22T04:14:29.145Z,10.50
2018-09-22T04:17:04.669Z,10.50
2018-09-22T04:19:40.128Z,10.50
2018-09-22T04:22:15.690Z,10.50
2018-09-22T04:24:51.244Z,10.50
2018-09-22T04:27:26.682Z,10.50
2018-09-22T04:30:02.011Z,10.50
2018-09-22T04:32:37.653Z,10.40
2018-09-22T04:35:13.161Z,10.40
2018-09-22T04:37:48.652Z,10.30
2018-09-22T04:40:24.305Z,10.20
2018-09-22T04:42:59.853Z,10.10
2018-09-22T04:45:35.104Z,10.10
2018-09-22T04:48:10.624Z,10.00
2018-09-22T04:50:46.113Z,10.00
2018-09-22T04:53:21.513Z,9.90
2018-09-22T04:55:56.942Z,9.90
2018-09-22T04:58:32.412Z,9.90
2018-09-22T05:01:07.893Z,9.80
2018-09-22T05:03:43.498Z,9.80
2018-09-22T05:06:19.013Z,9.90
2018-09-22T05:08:54.592Z,9.90
2018-09-22T05:11:30.084Z,10.00
2018-09-22T05:14:06.413Z,10.10
2018-09-22T05:16:41.736Z,10.20
2018-09-22T05:19:17.331Z,10.30
2018-09-22T05:21:52.773Z,10.40
2018-09-22T05:24:28.273Z,10.50
2018-09-22T05:27:03.819Z,10.50
2018-09-22T05:29:39.493Z,10.50
2018-09-22T05:32:14.708Z,10.50
2018-09-22T05:34:50.160Z,10.60
2018-09-22T05:37:24.930Z,10.70
2018-09-22T05:39:59.765Z,10.70
2018-09-22T05:42:34.392Z,10.70
2018-09-22T05:45:09.525Z,10.70
2018-09-22T05:47:44.016Z,10.60
2018-09-22T05:50:18.972Z,10.60
2018-09-22T05:52:53.836Z,10.50
2018-09-22T05:55:28.619Z,10.50
2018-09-22T05:58:03.281Z,10.50
2018-09-22T06:00:39.550Z,10.90
2018-09-22T06:03:14.320Z,11.60
2018-09-22T06:05:49.218Z,12.30
2018-09-22T06:08:23.860Z,12.90
2018-09-22T06:10:58.756Z,13.40
2018-09-22T06:13:34.137Z,13.90
2018-09-22T06:16:09.810Z,14.20
2018-09-22T06:18:45.276Z,14.60
2018-09-22T06:21:20.882Z,14.80
2018-09-22T06:23:55.417Z,15.10
2018-09-22T06:26:30.236Z,15.60
2018-09-22T06:29:04.952Z,15.70
2018-09-22T06:31:40.447Z,15.80
2018-09-22T06:34:15.257Z,15.90
2018-09-22T06:36:50.073Z,16.30
2018-09-22T06:39:24.971Z,16.40
2018-09-22T06:41:59.875Z,16.60
2018-09-22T06:44:34.531Z,16.60
2018-09-22T06:47:09.670Z,16.80
2018-09-22T06:49:44.333Z,16.70
2018-09-22T06:52:19.098Z,16.90
2018-09-22T06:54:53.802Z,17.00
2018-09-22T06:57:28.920Z,16.90
2018-09-22T07:00:03.721Z,16.90
2018-09-22T07:02:38.552Z,17.00
2018-09-22T07:05:13.204Z,17.10
2018-09-22T07:07:47.981Z,16.90
2018-09-22T07:10:22.701Z,16.90
2018-09-22T07:12:57.497Z,16.90
2018-09-22T07:15:32.295Z,16.80
2018-09-22T07:18:07.132Z,16.90
2018-09-22T07:20:45.844Z,16.70
2018-09-22T07:23:20.768Z,16.60
2018-09-22T07:25:55.557Z,16.40
2018-09-22T07:28:30.384Z,16.40
2018-09-22T07:31:05.076Z,16.50
2018-09-22T07:33:42.800Z,16.50
2018-09-22T07:36:17.411Z,16.40
2018-09-22T07:38:52.801Z,15.90
2018-09-22T07:41:28.232Z,15.40
2018-09-22T07:44:03.906Z,14.90
2018-09-22T07:46:39.172Z,14.50
2018-09-22T07:49:21.236Z,14.40
2018-09-22T07:51:56.702Z,14.30
2018-09-22T07:54:32.159Z,14.10
2018-09-22T07:57:07.445Z,14.10
2018-09-22T07:59:42.994Z,14.20
2018-09-22T08:02:17.455Z,14.10
2018-09-22T08:04:52.200Z,14.10
2018-09-22T08:07:26.932Z,14.10
2018-09-22T08:10:01.604Z,14.20
2018-09-22T08:12:36.248Z,14.30
2018-09-22T08:15:11.797Z,14.40
2018-09-22T08:17:46.344Z,14.50
2018-09-22T08:20:21.167Z,14.60
2018-09-22T08:22:55.736Z,14.70
2018-09-22T08:25:31.230Z,14.70
2018-09-22T08:28:05.934Z,14.70
2018-09-22T08:30:41.373Z,14.80
2018-09-22T08:33:16.576Z,14.80
2018-09-22T08:35:51.953Z,15.00
2018-09-22T08:38:27.280Z,15.20
2018-09-22T08:41:02.080Z,15.50
2018-09-22T08:43:36.844Z,15.80
2018-09-22T08:46:11.644Z,15.70
2018-09-22T08:48:46.196Z,15.70
2018-09-22T08:51:21.185Z,15.60
2018-09-22T08:53:55.724Z,15.50
2018-09-22T08:56:30.538Z,15.40
2018-09-22T08:59:05.152Z,15.60
2018-09-22T09:01:39.820Z,15.40
2018-09-22T09:04:14.468Z,15.60
2018-09-22T09:06:49.371Z,15.70
2018-09-22T09:09:24.112Z,15.70
2018-09-22T09:11:59.128Z,15.80
2018-09-22T09:14:33.869Z,15.90
2018-09-22T09:17:09.690Z,15.90
2018-09-22T09:19:44.165Z,16.00
2018-09-22T09:22:18.792Z,16.10
2018-09-22T09:24:53.396Z,16.00
2018-09-22T09:27:28.140Z,16.00
2018-09-22T09:30:02.868Z,15.80
2018-09-22T09:32:37.672Z,15.90
2018-09-22T09:35:12.676Z,16.20
2018-09-22T09:37:47.549Z,16.50
2018-09-22T09:40:22.333Z,16.70
2018-09-22T09:42:57.105Z,16.70
2018-09-22T09:45:31.806Z,16.90
2018-09-22T09:48:06.740Z,17.00
2018-09-22T09:50:41.471Z,17.40
2018-09-22T09:53:16.288Z,17.30
2018-09-22T09:55:50.948Z,17.10
2018-09-22T09:58:26.044Z,17.00
2018-09-22T10:01:00.709Z,16.80
2018-09-22T10:03:35.552Z,16.70
2018-09-22T10:06:10.265Z,16.60
2018-09-22T10:08:45.073Z,16.50
2018-09-22T10:11:19.692Z,16.70
2018-09-22T10:13:54.495Z,16.90
2018-09-22T10:16:29.152Z,17.10
2018-09-22T10:19:04.110Z,17.30
2018-09-22T10:21:38.696Z,17.20
2018-09-22T10:24:13.539Z,17.10
2018-09-22T10:26:48.264Z,16.70
2018-09-22T10:29:23.076Z,16.50
2018-09-22T10:31:57.869Z,16.30
2018-09-22T10:34:32.783Z,16.50
2018-09-22T10:37:07.500Z,16.70
2018-09-22T10:39:42.491Z,16.80
2018-09-22T10:42:17.075Z,16.80
2018-09-22T10:44:51.836Z,16.90
2018-09-22T10:47:26.613Z,16.80
2018-09-22T10:50:02.469Z,17.10
2018-09-22T10:52:37.360Z,17.30
2018-09-22T10:55:12.142Z,17.10
2018-09-22T10:57:46.760Z,17.10
2018-09-22T11:00:21.596Z,17.20
2018-09-22T11:02:56.166Z,17.20
2018-09-22T11:05:31.040Z,17.30
2018-09-22T11:08:05.789Z,17.60
2018-09-22T11:10:40.623Z,17.50
2018-09-22T11:13:15.573Z,17.10
2018-09-22T11:15:51.207Z,17.10
2018-09-22T11:18:26.868Z,17.20
2018-09-22T11:21:02.795Z,17.10
2018-09-22T11:23:37.581Z,17.20
2018-09-22T11:26:12.489Z,17.40
2018-09-22T11:28:47.728Z,17.70
2018-09-22T11:31:22.547Z,17.80
2018-09-22T11:33:57.262Z,17.70
2018-09-22T11:36:32.136Z,17.80
2018-09-22T11:39:08.613Z,17.70
2018-09-22T11:41:43.644Z,17.60
2018-09-22T11:49:28.954Z,17.60
2018-09-22T11:52:03.724Z,17.20
2018-09-22T11:54:40.161Z,17.10
2018-09-22T11:57:22.021Z,17.20
2018-09-22T11:59:56.837Z,17.20
2018-09-22T12:02:31.676Z,17.10
2018-09-22T12:05:06.305Z,17.00
2018-09-22T12:07:41.288Z,16.90
2018-09-22T12:10:15.968Z,16.90
2018-09-22T12:12:50.886Z,16.90
2018-09-22T12:15:25.440Z,16.70
2018-09-22T12:18:00.360Z,16.50
2018-09-22T12:20:35.120Z,16.20
2018-09-22T12:23:09.832Z,15.70
2018-09-22T12:25:44.420Z,15.00
2018-09-22T12:28:19.180Z,14.50
2018-09-22T12:30:53.820Z,14.20
2018-09-22T12:33:28.822Z,14.20
2018-09-22T12:36:03.672Z,14.30
2018-09-22T12:38:38.472Z,14.20
2018-09-22T12:41:13.203Z,14.10
2018-09-22T12:43:48.036Z,13.90
2018-09-22T12:46:23.045Z,13.90
2018-09-22T12:48:57.836Z,14.00
2018-09-22T12:51:32.763Z,14.20
2018-09-22T12:54:07.680Z,14.20
2018-09-22T12:56:42.348Z,14.20
2018-09-22T12:59:17.435Z,14.10
2018-09-22T13:01:51.968Z,14.10
2018-09-22T13:04:26.920Z,14.00
2018-09-22T13:07:01.768Z,13.80
2018-09-22T13:09:36.532Z,13.70
2018-09-22T13:12:11.236Z,13.80
2018-09-22T13:14:46.084Z,13.70
2018-09-22T13:17:20.709Z,13.50
2018-09-22T13:19:55.475Z,13.30
2018-09-22T13:22:30.809Z,13.10
2018-09-22T13:25:06.233Z,13.00
2018-09-22T13:27:41.550Z,13.20
2018-09-22T13:30:16.947Z,13.30
2018-09-22T13:32:52.459Z,13.30
2018-09-22T13:35:27.909Z,13.30
2018-09-22T13:38:03.158Z,13.30
2018-09-22T13:40:38.896Z,13.40
2018-09-22T13:43:14.209Z,13.50
2018-09-22T13:45:49.638Z,13.70
2018-09-22T13:48:25.120Z,13.80
2018-09-22T13:51:00.515Z,13.90
2018-09-22T13:53:36.002Z,13.90
2018-09-22T13:56:11.405Z,14.00
2018-09-22T13:58:46.737Z,14.00
2018-09-22T14:01:22.125Z,14.10
2018-09-22T14:03:57.333Z,14.00
2018-09-22T14:06:32.869Z,14.10
2018-09-22T14:09:11.453Z,14.20
2018-09-22T14:11:46.892Z,14.20
2018-09-22T14:14:22.181Z,14.30
2018-09-22T14:16:57.751Z,14.30
2018-09-22T14:19:33.212Z,14.30
2018-09-22T14:22:08.776Z,14.20
2018-09-22T14:24:44.049Z,14.20
2018-09-22T14:27:19.644Z,14.20
2018-09-22T14:29:55.167Z,14.30
2018-09-22T14:32:30.756Z,14.30
2018-09-22T14:35:06.254Z,14.40
2018-09-22T14:37:41.652Z,14.40
2018-09-22T14:40:16.937Z,14.40
2018-09-22T14:42:52.426Z,14.40
2018-09-22T14:45:27.792Z,14.40
2018-09-22T14:48:03.285Z,14.30
2018-09-22T14:50:38.753Z,14.40
2018-09-22T14:53:14.158Z,14.40
2018-09-22T14:55:49.642Z,14.30
2018-09-22T14:58:25.194Z,14.30
2018-09-22T15:01:00.495Z,14.40
2018-09-22T15:03:35.830Z,14.30
2018-09-22T15:06:11.293Z,14.30
2018-09-22T15:08:46.788Z,14.30
2018-09-22T15:11:22.262Z,14.30
2018-09-22T15:13:57.646Z,14.30
2018-09-22T15:16:32.869Z,14.30
2018-09-22T15:19:08.303Z,14.20
2018-09-22T15:21:43.708Z,14.10
2018-09-22T15:24:18.500Z,14.10
2018-09-22T15:26:53.874Z,14.00
2018-09-22T15:29:28.744Z,13.90
2018-09-22T15:32:04.112Z,13.90
2018-09-22T15:34:39.529Z,13.90
2018-09-22T15:37:15.025Z,13.90
2018-09-22T15:39:50.595Z,13.80
2018-09-22T15:42:26.181Z,13.90
2018-09-22T15:45:01.716Z,13.80
2018-09-22T15:47:37.240Z,13.90
2018-09-22T15:50:12.793Z,13.90
2018-09-22T15:52:48.137Z,13.90
2018-09-22T15:55:23.568Z,13.90
2018-09-22T15:57:58.972Z,13.90
2018-09-22T16:00:34.594Z,13.80
2018-09-22T16:03:10.129Z,13.80
2018-09-22T16:05:45.967Z,13.80
2018-09-22T16:08:20.910Z,13.80
2018-09-22T16:10:56.543Z,13.70
2018-09-22T16:13:32.071Z,13.70
2018-09-22T16:16:07.854Z,13.70
2018-09-22T16:18:43.110Z,13.70
2018-09-22T16:21:17.905Z,13.70
2018-09-22T16:23:53.373Z,13.60
2018-09-22T16:26:28.778Z,13.60
2018-09-22T16:29:04.276Z,13.60
2018-09-22T16:31:39.901Z,13.60
2018-09-22T16:34:15.420Z,13.50
2018-09-22T16:36:50.804Z,13.50
2018-09-22T16:39:26.495Z,13.50
2018-09-22T16:42:02.042Z,13.50
2018-09-22T16:44:37.544Z,13.50
2018-09-22T16:47:13.350Z,13.40
2018-09-22T16:49:48.587Z,13.40
2018-09-22T16:52:24.181Z,13.30
2018-09-22T16:54:59.674Z,13.30
2018-09-22T16:57:35.146Z,13.30
2018-09-22T17:00:10.661Z,13.30
2018-09-22T17:02:46.235Z,13.30
2018-09-22T17:05:21.088Z,13.20
2018-09-22T17:07:56.905Z,13.20
2018-09-22T17:10:31.860Z,13.20
2018-09-22T17:13:07.588Z,13.10
2018-09-22T17:15:43.000Z,13.10
2018-09-22T17:18:18.357Z,13.00
2018-09-22T17:20:53.705Z,13.00
2018-09-22T17:23:29.121Z,13.00
2018-09-22T17:26:04.621Z,12.90
2018-09-22T17:28:40.155Z,12.90
2018-09-22T17:31:15.461Z,12.90
2018-09-22T17:33:50.930Z,12.80
2018-09-22T17:36:26.381Z,12.80
2018-09-22T17:39:02.055Z,12.70
2018-09-22T17:41:37.746Z,12.60
2018-09-22T17:44:13.332Z,12.60
2018-09-22T17:46:48.813Z,12.60
2018-09-22T17:49:24.302Z,12.60
2018-09-22T17:51:59.709Z,12.60
2018-09-22T17:54:35.500Z,12.70
2018-09-22T17:57:10.805Z,12.70
2018-09-22T17:59:46.276Z,12.70
2018-09-22T18:02:21.542Z,12.70
2018-09-22T18:04:57.050Z,12.70
2018-09-22T18:07:32.382Z,12.70
2018-09-22T18:10:07.917Z,12.70
2018-09-22T18:12:43.412Z,12.70
2018-09-22T18:15:18.842Z,12.70
2018-09-22T18:17:54.275Z,12.70
2018-09-22T18:20:29.905Z,12.60
2018-09-22T18:23:05.401Z,12.60
2018-09-22T18:25:40.889Z,12.60
2018-09-22T18:28:16.247Z,12.50
2018-09-22T18:30:51.823Z,12.50
2018-09-22T18:33:27.446Z,12.50
2018-09-22T18:36:03.181Z,12.40
2018-09-22T18:38:38.559Z,12.40
2018-09-22T18:41:14.110Z,12.40
2018-09-22T18:43:49.581Z,12.30
2018-09-22T18:46:25.060Z,12.30
2018-09-22T18:49:00.600Z,12.20
2018-09-22T18:51:36.099Z,12.20
2018-09-22T18:54:11.552Z,12.20
2018-09-22T18:56:47.041Z,12.20
2018-09-22T18:59:22.340Z,12.20
2018-09-22T19:01:57.717Z,12.20
2018-09-22T19:04:32.980Z,12.20
2018-09-22T19:07:08.589Z,12.10
2018-09-22T19:09:44.140Z,12.10
2018-09-22T19:12:19.510Z,12.10
2018-09-22T19:15:01.355Z,12.00
2018-09-22T19:17:54.989Z,11.90
2018-09-22T19:20:37.845Z,11.90
2018-09-22T19:23:16.884Z,11.90
2018-09-22T19:25:55.923Z,11.80
2018-09-22T19:28:41.753Z,11.80
2018-09-22T19:31:22.779Z,11.80
2018-09-22T19:34:04.502Z,11.70
2018-09-22T19:36:42.878Z,11.70
2018-09-22T19:39:25.565Z,11.60
2018-09-22T19:42:06.151Z,11.60
2018-09-22T19:44:45.443Z,11.60
2018-09-22T19:47:27.422Z,11.60
2018-09-22T19:50:05.541Z,11.50
2018-09-22T19:52:48.623Z,11.50
2018-09-22T19:55:24.145Z,11.40
2018-09-22T19:57:59.820Z,11.30
2018-09-22T20:00:35.257Z,11.30
2018-09-22T20:03:10.759Z,11.30
2018-09-22T20:05:46.360Z,11.20
2018-09-22T20:08:22.055Z,11.20
2018-09-22T20:10:57.385Z,11.10
2018-09-22T20:13:32.925Z,11.00
2018-09-22T20:16:08.704Z,10.90
2018-09-22T20:18:44.150Z,10.90
2018-09-22T20:21:19.637Z,10.80
2018-09-22T20:23:55.188Z,10.80
2018-09-22T20:26:30.616Z,10.70
2018-09-22T20:29:06.185Z,10.60
2018-09-22T20:31:41.388Z,10.60
2018-09-22T20:34:17.067Z,10.50
2018-09-22T20:36:52.361Z,10.50
2018-09-22T20:39:28.179Z,10.50
2018-09-22T20:42:03.759Z,10.40
2018-09-22T20:44:39.325Z,10.30
2018-09-22T20:47:14.752Z,10.30
2018-09-22T20:49:50.430Z,10.30
2018-09-22T20:52:25.826Z,10.30
2018-09-22T20:55:01.336Z,10.30
2018-09-22T20:57:36.910Z,10.20
2018-09-22T21:00:12.539Z,10.20
2018-09-22T21:02:48.048Z,10.20
2018-09-22T21:05:23.482Z,10.10
2018-09-22T21:07:58.737Z,10.10
2018-09-22T21:10:34.258Z,10.10
2018-09-22T21:13:09.637Z,10.10
2018-09-22T21:15:45.213Z,10.00
2018-09-22T21:18:20.733Z,10.00
2018-09-22T21:20:56.333Z,10.00
2018-09-22T21:23:31.889Z,10.00
2018-09-22T21:26:07.655Z,10.00
2018-09-22T21:28:43.185Z,10.00
2018-09-22T21:31:18.586Z,9.90
2018-09-22T21:33:53.806Z,9.90
2018-09-22T21:36:29.347Z,9.90
2018-09-22T21:39:07.534Z,9.90
2018-09-22T21:41:42.958Z,9.90
2018-09-22T21:44:18.445Z,9.90
2018-09-22T21:46:54.305Z,9.90
2018-09-22T21:49:29.705Z,9.80
2018-09-22T21:52:05.164Z,9.90
2018-09-22T21:54:40.560Z,9.80
2018-09-22T21:57:16.303Z,9.90
2018-09-22T21:59:51.911Z,9.90
2018-09-22T22:02:27.506Z,10.00
2018-09-22T22:05:02.860Z,10.00
2018-09-22T22:07:38.313Z,10.00
2018-09-22T22:10:13.529Z,10.00
2018-09-22T22:12:48.911Z,10.00
2018-09-22T22:15:24.414Z,10.00
2018-09-22T22:18:00.025Z,10.00
2018-09-22T22:20:35.659Z,10.10
2018-09-22T22:23:11.201Z,10.10
2018-09-22T22:25:46.453Z,10.10
2018-09-22T22:28:22.039Z,10.10
2018-09-22T22:30:57.252Z,10.10
2018-09-22T22:33:33.228Z,10.10
2018-09-22T22:36:08.693Z,10.10
2018-09-22T22:38:44.329Z,10.00
2018-09-22T22:41:19.701Z,9.90
2018-09-22T22:43:55.171Z,9.80
2018-09-22T22:46:30.647Z,9.70
2018-09-22T22:49:06.361Z,9.60
2018-09-22T22:51:41.852Z,9.60
2018-09-22T22:54:17.454Z,9.50
2018-09-22T22:56:52.922Z,9.50
2018-09-22T22:59:28.493Z,9.40
2018-09-22T23:02:03.889Z,9.40
2018-09-22T23:04:39.356Z,9.40
2018-09-22T23:07:14.798Z,9.40
2018-09-22T23:09:50.248Z,9.30
2018-09-22T23:12:25.748Z,9.40
2018-09-22T23:15:01.378Z,9.30
2018-09-22T23:17:36.854Z,9.30
2018-09-22T23:20:12.425Z,9.30
2018-09-22T23:22:48.158Z,9.30
2018-09-22T23:25:24.214Z,9.40
2018-09-22T23:27:59.800Z,9.50
2018-09-22T23:30:35.221Z,9.60
2018-09-22T23:33:10.554Z,9.60
2018-09-22T23:35:46.093Z,9.70
2018-09-22T23:38:21.542Z,9.70
2018-09-22T23:40:57.166Z,9.70
2018-09-22T23:43:32.637Z,9.70
2018-09-22T23:46:08.230Z,9.70
2018-09-22T23:48:43.644Z,9.70
2018-09-22T23:51:19.152Z,9.70
2018-09-22T23:53:54.557Z,9.80
2018-09-22T23:56:30.695Z,9.70
2018-09-22T23:59:06.345Z,9.70
